Time;durP1;ratioP1;P1;durP2;ratioP2;P2;SDS_P1;SDS_P2;PMS_P1;PMS_P2;Temp;Humidity;BMP_temperature;BMP_pressure;BME280_temperature;BME280_humidity;BME280_pressure;Samples;Min_cycle;Max_cycle;Signal;HPM_P1;HPM_P2
2022/05/04 00:00:47;;;;;;;8.40;7.70;;;11.80;99.90;;;;;;5048989;28;20792;-61
2022/05/04 00:03:13;;;;;;;8.70;7.07;;;11.50;99.90;;;;;;5034187;28;20716;-61
2022/05/04 00:05:38;;;;;;;8.50;7.70;;;11.30;99.90;;;;;;5046296;28;20214;-61
2022/05/04 00:08:05;;;;;;;8.60;7.20;;;11.50;99.90;;;;;;5046270;28;20441;-61
2022/05/04 00:10:31;;;;;;;8.00;7.30;;;11.40;99.90;;;;;;5051479;28;20495;-61
2022/05/04 00:12:58;;;;;;;7.97;7.28;;;11.50;99.90;;;;;;5067229;28;20198;-61
2022/05/04 00:15:25;;;;;;;8.48;7.78;;;11.40;99.90;;;;;;5053397;28;20214;-61
2022/05/04 00:17:51;;;;;;;8.32;7.45;;;11.40;99.90;;;;;;5052675;28;20191;-61
2022/05/04 00:20:17;;;;;;;9.00;7.37;;;11.40;99.90;;;;;;5052344;28;21334;-61
2022/05/04 00:22:43;;;;;;;8.30;7.60;;;11.20;99.90;;;;;;5047051;28;20674;-61
2022/05/04 00:25:10;;;;;;;8.55;7.70;;;11.20;99.90;;;;;;5052761;28;20465;-61
2022/05/04 00:27:37;;;;;;;8.55;7.75;;;11.50;99.90;;;;;;5051538;28;20187;-61
2022/05/04 00:30:04;;;;;;;8.30;7.50;;;11.50;99.90;;;;;;5050629;28;20206;-61
2022/05/04 00:32:29;;;;;;;8.43;7.63;;;11.50;99.90;;;;;;5045604;28;20183;-61
2022/05/04 00:34:55;;;;;;;9.30;8.40;;;11.30;99.90;;;;;;5042063;28;20223;-61
2022/05/04 00:37:21;;;;;;;8.02;7.28;;;11.30;99.90;;;;;;5053049;28;20210;-61
2022/05/04 00:39:47;;;;;;;10.03;7.63;;;11.10;99.90;;;;;;5049553;28;20547;-61
2022/05/04 00:42:18;;;;;;;8.83;8.07;;;11.00;99.90;;;;;;5046690;28;20179;-61
2022/05/04 00:44:46;;;;;;;8.35;7.55;;;11.00;99.90;;;;;;5052845;28;20263;-61
2022/05/04 00:47:12;;;;;;;8.85;7.97;;;11.10;99.90;;;;;;5057853;28;20288;-61
2022/05/04 00:49:40;;;;;;;8.68;7.90;;;10.90;99.90;;;;;;5052735;28;20183;-61
2022/05/04 00:52:06;;;;;;;9.15;8.25;;;10.80;99.90;;;;;;5037275;28;20221;-61
2022/05/04 00:54:34;;;;;;;8.30;7.50;;;10.70;99.90;;;;;;5051488;28;20284;-61
2022/05/04 00:57:01;;;;;;;10.15;8.10;;;10.90;99.90;;;;;;5044818;28;20607;-61
2022/05/04 00:59:29;;;;;;;8.68;7.88;;;11.00;99.90;;;;;;5052447;28;20180;-61
2022/05/04 01:01:56;;;;;;;10.05;7.60;;;10.40;99.90;;;;;;5052369;28;20199;-61
2022/05/04 01:04:22;;;;;;;8.30;7.50;;;10.90;99.90;;;;;;5052565;28;20209;-61
2022/05/04 01:06:48;;;;;;;10.20;8.40;;;11.00;99.90;;;;;;5050766;28;20274;-61
2022/05/04 01:09:14;;;;;;;8.60;7.80;;;11.00;99.90;;;;;;5048759;28;20206;-61
2022/05/04 01:11:40;;;;;;;8.13;7.32;;;11.00;99.90;;;;;;5045940;28;20580;-61
2022/05/04 01:14:08;;;;;;;9.23;8.43;;;10.90;99.90;;;;;;5046205;28;20294;-61
2022/05/04 01:16:36;;;;;;;8.07;7.32;;;11.10;99.90;;;;;;5047288;28;20420;-61
2022/05/04 01:19:01;;;;;;;8.93;8.13;;;11.40;99.90;;;;;;5050252;28;20226;-61
2022/05/04 01:21:27;;;;;;;9.13;7.20;;;11.20;99.90;;;;;;5048649;28;20217;-61
2022/05/04 01:23:54;;;;;;;7.97;7.18;;;11.00;99.90;;;;;;5044443;28;20491;-61
2022/05/04 01:26:20;;;;;;;7.50;6.70;;;11.00;99.90;;;;;;5044572;28;20603;-61
2022/05/04 01:28:47;;;;;;;8.02;7.32;;;11.00;99.90;;;;;;5044884;28;20203;-61
2022/05/04 01:31:13;;;;;;;7.20;6.50;;;11.40;99.90;;;;;;5043458;28;20633;-61
2022/05/04 01:33:39;;;;;;;7.85;7.15;;;10.90;99.90;;;;;;5045177;28;20232;-61
2022/05/04 01:36:09;;;;;;;8.57;7.85;;;10.90;99.90;;;;;;5046563;28;20179;-61
2022/05/04 01:38:36;;;;;;;8.70;7.90;;;11.00;99.90;;;;;;5047443;28;20216;-61
2022/05/04 01:41:02;;;;;;;8.63;7.50;;;11.00;99.90;;;;;;5044625;28;20233;-61
2022/05/04 01:43:28;;;;;;;8.23;7.47;;;11.00;99.90;;;;;;5049976;28;20430;-61
2022/05/04 01:45:54;;;;;;;8.55;7.75;;;10.80;99.90;;;;;;5039579;28;20182;-62
2022/05/04 01:48:20;;;;;;;8.97;8.17;;;10.80;99.90;;;;;;5061803;28;20202;-61
2022/05/04 01:50:46;;;;;;;8.75;7.90;;;10.70;99.90;;;;;;5050206;28;20452;-61
2022/05/04 01:53:11;;;;;;;8.93;8.03;;;10.70;99.90;;;;;;5041085;28;20192;-61
2022/05/04 01:55:37;;;;;;;9.17;8.20;;;10.70;99.90;;;;;;5050448;28;20230;-61
2022/05/04 01:58:03;;;;;;;11.70;8.20;;;10.80;99.90;;;;;;5051087;28;20198;-61
2022/05/04 02:00:30;;;;;;;9.10;8.30;;;10.80;99.90;;;;;;5051582;28;20192;-61
2022/05/04 02:02:58;;;;;;;8.90;8.13;;;10.80;99.90;;;;;;5049036;28;20209;-61
2022/05/04 02:05:24;;;;;;;8.30;7.60;;;10.80;99.90;;;;;;5051515;28;20261;-61
2022/05/04 02:07:50;;;;;;;8.48;7.70;;;10.90;99.90;;;;;;5049205;28;20192;-61
2022/05/04 02:10:16;;;;;;;8.17;7.37;;;10.70;99.90;;;;;;5050754;28;20186;-61
2022/05/04 02:12:43;;;;;;;8.57;7.80;;;11.00;99.90;;;;;;5050780;28;20193;-62
2022/05/04 02:15:11;;;;;;;9.35;8.55;;;10.80;99.90;;;;;;5040827;28;20469;-61
2022/05/04 02:17:37;;;;;;;8.57;7.78;;;10.90;99.90;;;;;;5050314;28;20187;-61
2022/05/04 02:20:04;;;;;;;8.80;7.90;;;10.80;99.90;;;;;;5050966;28;20222;-61
2022/05/04 02:22:30;;;;;;;9.93;8.93;;;10.80;99.90;;;;;;5048200;28;20193;-61
2022/05/04 02:24:56;;;;;;;8.90;8.10;;;10.80;99.90;;;;;;5066305;28;20219;-61
2022/05/04 02:27:21;;;;;;;8.60;7.80;;;10.80;99.90;;;;;;5046009;28;20452;-61
2022/05/04 02:29:47;;;;;;;8.70;7.90;;;10.80;99.90;;;;;;5049976;28;20710;-61
2022/05/04 02:32:13;;;;;;;8.57;7.87;;;11.10;99.90;;;;;;5041534;28;20715;-61
2022/05/04 02:40:07;;;;;;;8.55;7.75;;;10.90;99.90;;;;;;5050847;28;20224;-61
2022/05/04 02:42:33;;;;;;;8.07;7.38;;;11.00;99.90;;;;;;5047085;28;20181;-61
2022/05/04 02:44:59;;;;;;;8.67;7.77;;;11.20;99.90;;;;;;5040888;28;20221;-61
2022/05/04 02:47:24;;;;;;;8.77;7.97;;;10.90;99.90;;;;;;5039931;28;20226;-61
2022/05/04 02:49:50;;;;;;;11.83;8.20;;;11.10;99.90;;;;;;5049421;28;20698;-61
2022/05/04 02:52:16;;;;;;;8.83;8.03;;;11.00;99.90;;;;;;5046247;28;20246;-61
2022/05/04 02:54:41;;;;;;;9.60;8.60;;;11.30;99.90;;;;;;5049328;28;20199;-61
2022/05/04 02:57:07;;;;;;;8.73;7.97;;;10.90;99.90;;;;;;5042902;28;20277;-61
2022/05/04 02:59:33;;;;;;;9.20;8.30;;;10.90;99.90;;;;;;5041212;28;20175;-61
2022/05/04 03:04:42;;;;;;;9.48;8.60;;;10.80;99.90;;;;;;5043811;28;20276;-61
2022/05/04 03:07:08;;;;;;;9.30;8.50;;;10.80;99.90;;;;;;5045558;28;20817;-61
2022/05/04 03:09:34;;;;;;;9.77;8.17;;;11.00;99.90;;;;;;5043045;28;20586;-61
2022/05/04 03:11:59;;;;;;;9.87;8.90;;;10.90;99.90;;;;;;5043892;28;20244;-62
2022/05/04 03:14:27;;;;;;;9.40;8.50;;;11.30;99.90;;;;;;5040967;28;20664;-62
2022/05/04 03:16:53;;;;;;;8.25;7.53;;;11.20;99.90;;;;;;5046144;28;20180;-61
2022/05/04 03:19:23;;;;;;;9.30;8.40;;;11.30;99.90;;;;;;5043007;28;20195;-61
2022/05/04 03:21:49;;;;;;;9.45;8.45;;;11.20;99.90;;;;;;5042317;28;20190;-61
2022/05/04 03:24:16;;;;;;;8.93;8.13;;;11.20;99.90;;;;;;5045626;28;20260;-61
2022/05/04 03:26:41;;;;;;;10.60;9.63;;;11.40;99.90;;;;;;5044065;28;20590;-61
2022/05/04 03:29:08;;;;;;;10.10;9.20;;;11.20;99.90;;;;;;5046152;28;20312;-61
2022/05/04 03:31:33;;;;;;;9.38;8.57;;;11.20;99.90;;;;;;5047809;28;20184;-61
2022/05/04 03:33:59;;;;;;;9.68;8.77;;;11.40;99.90;;;;;;5042583;28;20207;-61
2022/05/04 03:36:25;;;;;;;10.00;9.00;;;11.40;99.90;;;;;;5047537;28;20195;-61
2022/05/04 03:38:51;;;;;;;9.45;8.65;;;11.50;99.90;;;;;;5048465;28;20306;-61
2022/05/04 03:41:17;;;;;;;10.20;9.20;;;11.50;99.90;;;;;;5044128;28;20945;-61
2022/05/04 03:43:43;;;;;;;12.93;11.60;;;11.30;99.90;;;;;;5042388;28;20514;-61
2022/05/04 03:46:17;;;;;;;9.37;8.47;;;11.40;99.90;;;;;;5040671;28;20211;-61
2022/05/04 03:48:45;;;;;;;10.10;9.10;;;11.60;99.90;;;;;;5060346;28;20425;-61
2022/05/04 03:51:13;;;;;;;9.43;8.60;;;11.40;99.90;;;;;;5048789;28;20229;-60
2022/05/04 03:53:39;;;;;;;9.32;8.52;;;11.50;99.90;;;;;;5038100;28;20534;-60
2022/05/04 03:56:05;;;;;;;10.05;9.15;;;11.60;99.90;;;;;;5041629;28;20267;-60
2022/05/04 03:58:31;;;;;;;9.60;8.80;;;11.50;99.90;;;;;;5041115;28;20260;-61
2022/05/04 04:00:57;;;;;;;8.73;7.90;;;11.50;99.90;;;;;;5045336;28;20279;-61
2022/05/04 04:03:23;;;;;;;9.47;8.67;;;11.70;99.90;;;;;;5063278;28;20444;-61
2022/05/04 04:05:48;;;;;;;9.50;8.60;;;11.80;99.90;;;;;;5048043;28;20477;-61
2022/05/04 04:08:14;;;;;;;9.10;8.20;;;11.60;99.90;;;;;;5048058;28;20181;-61
2022/05/04 04:10:40;;;;;;;9.17;8.27;;;11.50;99.90;;;;;;5049734;28;20187;-60
2022/05/04 04:13:08;;;;;;;9.40;8.43;;;11.60;99.90;;;;;;5046509;28;20198;-61
2022/05/04 04:15:34;;;;;;;9.25;8.35;;;11.80;99.90;;;;;;5046425;28;20204;-60
2022/05/04 04:18:00;;;;;;;9.50;8.50;;;11.60;99.90;;;;;;5052631;28;20193;-61
2022/05/04 04:23:10;;;;;;;9.70;8.73;;;12.00;99.90;;;;;;5043487;28;20484;-61
2022/05/04 04:25:36;;;;;;;9.67;8.77;;;12.00;99.90;;;;;;5048559;28;20235;-61
2022/05/04 04:28:02;;;;;;;10.13;9.10;;;11.80;99.90;;;;;;5046917;28;20232;-61
2022/05/04 04:30:28;;;;;;;9.60;8.80;;;11.80;99.90;;;;;;5044279;28;20206;-61
2022/05/04 04:32:54;;;;;;;9.47;8.57;;;11.70;99.90;;;;;;5041546;28;20198;-61
2022/05/04 04:35:19;;;;;;;9.27;8.50;;;11.90;99.90;;;;;;5044015;28;20232;-61
2022/05/04 04:37:45;;;;;;;10.03;9.13;;;11.80;99.90;;;;;;5048008;28;20203;-61
2022/05/04 04:40:11;;;;;;;9.53;8.73;;;12.20;99.90;;;;;;5044421;28;20274;-61
2022/05/04 04:42:37;;;;;;;9.95;9.05;;;12.20;99.90;;;;;;5046683;28;20198;-61
2022/05/04 04:45:04;;;;;;;8.60;7.87;;;12.30;99.90;;;;;;5041730;28;20221;-61
2022/05/04 04:47:30;;;;;;;8.73;7.93;;;12.10;99.90;;;;;;5040598;28;20239;-61
2022/05/04 04:49:57;;;;;;;8.48;7.70;;;12.00;99.90;;;;;;5060210;28;20180;-61
2022/05/04 04:52:23;;;;;;;8.75;7.95;;;12.10;99.90;;;;;;5043352;28;20814;-61
2022/05/04 04:54:49;;;;;;;9.95;8.95;;;12.30;99.90;;;;;;5047425;28;20673;-61
2022/05/04 04:57:15;;;;;;;10.70;8.55;;;12.10;99.90;;;;;;5048031;28;20189;-61
2022/05/04 04:59:42;;;;;;;9.30;8.50;;;12.10;99.90;;;;;;5051060;28;20186;-62
2022/05/04 05:02:08;;;;;;;10.05;8.98;;;12.30;99.90;;;;;;5047650;28;20196;-61
2022/05/04 05:04:34;;;;;;;9.63;8.77;;;12.10;99.90;;;;;;5050664;28;20278;-61
2022/05/04 05:06:59;;;;;;;9.70;8.80;;;12.00;99.90;;;;;;5051537;28;20611;-62
2022/05/04 05:09:25;;;;;;;10.90;8.77;;;12.10;99.90;;;;;;5051760;28;20202;-61
2022/05/04 05:11:51;;;;;;;9.03;8.10;;;12.30;99.90;;;;;;5049822;28;20291;-61
2022/05/04 05:17:01;;;;;;;8.85;7.95;;;12.20;99.90;;;;;;5050849;28;20203;-62
2022/05/04 05:19:26;;;;;;;9.07;8.20;;;12.50;99.90;;;;;;5050898;28;20191;-61
2022/05/04 05:21:52;;;;;;;10.27;9.37;;;12.40;99.90;;;;;;5051243;28;20434;-62
2022/05/04 05:24:18;;;;;;;10.03;9.00;;;12.10;99.90;;;;;;5050530;28;20276;-61
2022/05/04 05:26:43;;;;;;;9.63;8.83;;;12.40;99.90;;;;;;5042552;28;20186;-62
2022/05/04 05:29:09;;;;;;;9.47;8.60;;;12.60;99.90;;;;;;5051107;28;20214;-62
2022/05/04 05:31:35;;;;;;;9.83;8.80;;;12.40;99.90;;;;;;5050849;28;20626;-61
2022/05/04 05:34:00;;;;;;;8.97;8.10;;;12.60;99.90;;;;;;5048382;28;20294;-62
2022/05/04 05:36:26;;;;;;;12.00;10.67;;;12.40;99.90;;;;;;5050164;28;20707;-62
2022/05/04 05:38:51;;;;;;;9.33;8.43;;;12.40;99.90;;;;;;5046110;28;20230;-61
2022/05/04 05:41:17;;;;;;;9.30;8.30;;;12.80;99.90;;;;;;5046776;28;20219;-62
2022/05/04 05:43:43;;;;;;;9.07;8.20;;;12.50;99.90;;;;;;5046719;28;20217;-62
2022/05/04 05:46:08;;;;;;;9.20;8.40;;;13.00;99.90;;;;;;5050848;28;20188;-62
2022/05/04 05:48:34;;;;;;;8.10;7.40;;;12.90;99.90;;;;;;5050479;28;20490;-62
2022/05/04 05:51:04;;;;;;;10.70;8.67;;;13.00;99.90;;;;;;5048024;28;20642;-62
2022/05/04 05:53:30;;;;;;;8.13;7.43;;;13.40;99.90;;;;;;5051916;28;20182;-63
2022/05/04 05:55:55;;;;;;;8.40;7.70;;;13.60;99.90;;;;;;5050609;28;20704;-62
2022/05/04 05:58:21;;;;;;;8.73;7.90;;;13.90;99.90;;;;;;5050726;28;20205;-63
2022/05/04 06:00:46;;;;;;;9.00;8.20;;;13.60;99.90;;;;;;5051081;28;20181;-62
2022/05/04 06:03:14;;;;;;;9.00;8.20;;;13.80;99.90;;;;;;5044301;28;20598;-67
2022/05/04 06:05:39;;;;;;;9.77;8.98;;;13.80;99.90;;;;;;5046643;28;20227;-65
2022/05/04 06:08:05;;;;;;;8.20;7.50;;;13.80;99.90;;;;;;5042573;28;20572;-62
2022/05/04 06:10:31;;;;;;;8.73;7.93;;;13.80;99.90;;;;;;5038764;28;20556;-62
2022/05/04 06:12:59;;;;;;;10.37;8.27;;;13.90;99.90;;;;;;5045915;28;20181;-67
2022/05/04 06:15:24;;;;;;;8.90;8.10;;;13.60;99.90;;;;;;5046890;28;20642;-63
2022/05/04 06:17:50;;;;;;;9.80;8.50;;;14.10;99.90;;;;;;5049076;28;20746;-64
2022/05/04 06:20:17;;;;;;;9.50;8.60;;;13.90;99.90;;;;;;5051445;28;20193;-63
2022/05/04 06:22:42;;;;;;;8.23;7.43;;;14.00;99.90;;;;;;5044975;28;20190;-63
2022/05/04 06:25:08;;;;;;;8.77;7.97;;;14.20;99.90;;;;;;5047087;28;20664;-63
2022/05/04 06:27:34;;;;;;;8.32;7.53;;;14.20;99.90;;;;;;5045115;28;20255;-63
2022/05/04 06:35:28;;;;;;;7.82;7.13;;;14.30;99.90;;;;;;5043916;28;20609;-63
2022/05/04 06:37:54;;;;;;;8.93;8.03;;;14.40;99.90;;;;;;5048382;28;20193;-63
2022/05/04 06:40:22;;;;;;;9.73;7.70;;;14.50;99.90;;;;;;5043981;28;20193;-65
2022/05/04 06:42:48;;;;;;;8.90;8.00;;;14.40;99.90;;;;;;5049226;28;20272;-64
2022/05/04 06:45:14;;;;;;;7.50;6.90;;;14.40;99.90;;;;;;5048531;28;20300;-63
2022/05/04 06:47:39;;;;;;;8.43;7.73;;;14.60;99.90;;;;;;5049120;28;20335;-66
2022/05/04 06:50:05;;;;;;;7.90;7.20;;;14.90;99.90;;;;;;5043009;28;20185;-65
2022/05/04 06:52:34;;;;;;;7.75;7.10;;;14.80;99.90;;;;;;5050119;28;20780;-66
2022/05/04 06:54:59;;;;;;;8.98;8.10;;;14.70;99.90;;;;;;5048956;28;20213;-66
2022/05/04 06:57:25;;;;;;;8.90;8.10;;;14.70;99.90;;;;;;5045617;28;20185;-66
2022/05/04 06:59:51;;;;;;;8.60;7.80;;;14.80;99.90;;;;;;5048256;28;20185;-64
2022/05/04 07:02:17;;;;;;;8.10;7.40;;;14.50;99.90;;;;;;5048165;28;20189;-66
2022/05/04 07:04:43;;;;;;;8.18;7.47;;;14.70;99.90;;;;;;5048982;28;20219;-66
2022/05/04 07:07:08;;;;;;;7.93;7.23;;;15.00;99.90;;;;;;5068206;28;20177;-65
2022/05/04 07:09:34;;;;;;;8.13;7.43;;;15.00;99.90;;;;;;5043758;28;20304;-66
2022/05/04 07:12:00;;;;;;;8.47;7.67;;;15.10;99.90;;;;;;5050985;28;20221;-64
2022/05/04 07:14:25;;;;;;;7.10;6.50;;;15.60;99.90;;;;;;5042872;28;20198;-64
2022/05/04 07:16:51;;;;;;;8.10;7.33;;;15.50;99.90;;;;;;5048257;28;20189;-64
2022/05/04 07:19:17;;;;;;;8.17;7.20;;;15.60;99.90;;;;;;5048551;28;20196;-65
2022/05/04 07:21:45;;;;;;;7.95;7.13;;;15.80;99.90;;;;;;5046951;28;20185;-65
2022/05/04 07:24:11;;;;;;;7.53;6.82;;;16.00;99.90;;;;;;5040067;28;20721;-67
2022/05/04 07:26:40;;;;;;;7.33;6.63;;;16.00;99.90;;;;;;5046929;28;20189;-63
2022/05/04 07:29:06;;;;;;;9.13;7.45;;;15.90;99.90;;;;;;5049288;28;20449;-62
2022/05/04 07:31:32;;;;;;;7.88;7.22;;;15.80;99.90;;;;;;5041496;28;20209;-64
2022/05/04 07:33:57;;;;;;;7.10;6.50;;;16.10;99.90;;;;;;5049100;28;20237;-62
2022/05/04 07:36:23;;;;;;;6.70;6.20;;;16.20;99.90;;;;;;5040999;28;20284;-62
2022/05/04 07:38:49;;;;;;;6.47;5.87;;;16.10;99.90;;;;;;5046958;28;20189;-61
2022/05/04 07:43:59;;;;;;;6.68;6.18;;;16.20;99.90;;;;;;5045702;28;20298;-62
2022/05/04 07:46:27;;;;;;;7.20;6.60;;;16.20;99.90;;;;;;5045348;28;20175;-62
2022/05/04 07:48:54;;;;;;;6.65;6.15;;;16.20;99.90;;;;;;5048366;28;20196;-64
2022/05/04 07:51:20;;;;;;;7.13;6.40;;;16.60;99.90;;;;;;5048222;28;20245;-62
2022/05/04 07:53:45;;;;;;;6.27;5.77;;;16.40;99.90;;;;;;5044998;28;20643;-62
2022/05/04 07:56:11;;;;;;;6.00;5.40;;;16.30;99.90;;;;;;5040499;28;20192;-66
2022/05/04 07:58:36;;;;;;;5.70;5.17;;;17.00;99.90;;;;;;5041353;28;20185;-63
2022/05/04 08:04:20;;;;;;;6.50;6.00;;;17.30;99.90;;;;;;5005337;28;20229;-65
2022/05/04 08:06:46;;;;;;;6.47;5.70;;;17.00;99.90;;;;;;5043439;28;20177;-66
2022/05/04 08:09:13;;;;;;;6.10;5.50;;;16.80;99.90;;;;;;5036659;28;20182;-66
2022/05/04 08:11:39;;;;;;;6.07;5.57;;;16.90;99.90;;;;;;5042493;28;20610;-67
2022/05/04 08:14:04;;;;;;;6.70;6.00;;;16.90;99.90;;;;;;5044913;28;20209;-61
2022/05/04 08:16:30;;;;;;;5.30;4.90;;;16.90;99.90;;;;;;5047646;28;20185;-60
2022/05/04 08:18:55;;;;;;;6.27;5.70;;;16.90;99.90;;;;;;5044712;28;20243;-62
2022/05/04 08:21:21;;;;;;;6.47;5.87;;;16.80;99.90;;;;;;5044515;28;20197;-62
2022/05/04 08:23:47;;;;;;;6.07;5.57;;;16.90;99.90;;;;;;5045748;28;20190;-62
2022/05/04 08:26:12;;;;;;;6.30;5.73;;;16.60;99.90;;;;;;5043530;28;20268;-64
2022/05/04 08:28:39;;;;;;;6.53;5.93;;;16.50;99.90;;;;;;5041324;28;20334;-65
2022/05/04 08:31:05;;;;;;;6.15;5.65;;;16.20;99.90;;;;;;5046168;28;20826;-62
2022/05/04 08:33:31;;;;;;;6.72;5.65;;;16.10;99.90;;;;;;5049510;28;20254;-73
2022/05/04 08:35:56;;;;;;;6.83;6.23;;;16.10;99.90;;;;;;5060400;28;20625;-71
2022/05/04 08:38:22;;;;;;;5.90;5.30;;;15.60;99.90;;;;;;5047626;28;20196;-69
2022/05/04 08:40:52;;;;;;;7.03;5.80;;;15.70;99.90;;;;;;5042735;28;20220;-69
2022/05/04 08:43:20;;;;;;;6.55;5.95;;;15.70;99.90;;;;;;5051774;28;20464;-68
2022/05/04 08:45:51;;;;;;;5.93;5.43;;;15.80;99.90;;;;;;5049042;28;20324;-70
2022/05/04 08:48:19;;;;;;;6.00;5.50;;;16.00;99.90;;;;;;5047193;28;20661;-69
2022/05/04 08:50:45;;;;;;;5.10;4.63;;;16.00;99.90;;;;;;5050453;28;20188;-69
2022/05/04 08:53:12;;;;;;;6.23;5.63;;;15.90;99.90;;;;;;5042099;28;20562;-67
2022/05/04 08:55:38;;;;;;;6.30;5.80;;;15.90;99.90;;;;;;5049193;28;20336;-66
2022/05/04 08:58:08;;;;;;;7.15;6.53;;;15.70;99.90;;;;;;5049298;28;20208;-72
2022/05/04 09:00:33;;;;;;;6.18;5.68;;;15.70;99.90;;;;;;5044023;28;20185;-73
2022/05/04 09:02:59;;;;;;;7.97;7.33;;;15.50;99.90;;;;;;5041382;28;20192;-72
2022/05/04 09:05:26;;;;;;;7.03;5.77;;;15.60;99.90;;;;;;5053089;28;20983;-73
2022/05/04 09:07:57;;;;;;;6.78;6.18;;;15.70;99.90;;;;;;5049914;28;20243;-65
2022/05/04 09:10:32;;;;;;;7.28;6.57;;;15.30;99.90;;;;;;5050638;28;20192;-67
2022/05/04 09:12:59;;;;;;;13.32;6.63;;;15.40;99.90;;;;;;5047338;28;20192;-70
2022/05/04 09:15:30;;;;;;;7.72;6.40;;;15.30;99.90;;;;;;5046210;28;20201;-67
2022/05/04 09:18:05;;;;;;;7.85;6.43;;;15.00;99.90;;;;;;5048601;28;20555;-66
2022/05/04 09:23:22;;;;;;;8.80;8.00;;;14.80;99.90;;;;;;5041721;28;20323;-66
2022/05/04 09:25:49;;;;;;;9.63;8.73;;;14.70;99.90;;;;;;5049644;28;20987;-66
2022/05/04 09:28:15;;;;;;;9.30;8.25;;;14.70;99.90;;;;;;5047874;28;20530;-74
2022/05/04 09:30:52;;;;;;;6.90;6.30;;;15.10;99.90;;;;;;5050300;28;20185;-75
2022/05/04 09:33:23;;;;;;;6.07;5.57;;;15.20;99.90;;;;;;5041702;28;20213;-76
2022/05/04 09:35:50;;;;;;;5.90;5.40;;;15.40;99.90;;;;;;5067918;28;20205;-77
2022/05/04 09:46:39;;;;;;;8.20;7.50;;;17.50;99.90;;;;;;5051095;28;20596;-67
2022/05/04 09:49:12;;;;;;;9.27;7.53;;;18.20;99.90;;;;;;5045780;28;20180;-64
2022/05/04 09:51:45;;;;;;;8.20;7.43;;;18.10;99.90;;;;;;5049729;28;20185;-67
2022/05/04 09:54:17;;;;;;;7.65;6.85;;;18.30;99.90;;;;;;5047079;28;20259;-67
2022/05/04 09:56:47;;;;;;;7.88;7.07;;;18.90;99.90;;;;;;5043728;28;20182;-73
2022/05/04 09:59:18;;;;;;;8.73;7.93;;;19.30;99.90;;;;;;5065971;28;20192;-65
2022/05/04 10:01:44;;;;;;;9.70;8.70;;;18.40;99.90;;;;;;5048854;28;20215;-70
2022/05/04 10:04:10;;;;;;;10.20;9.23;;;19.00;99.90;;;;;;5046136;28;20326;-70
2022/05/04 10:06:38;;;;;;;8.70;7.97;;;19.00;99.90;;;;;;5048427;28;20633;-71
2022/05/04 10:09:05;;;;;;;10.65;9.35;;;19.20;99.90;;;;;;5049747;28;20835;-69
2022/05/04 10:11:34;;;;;;;10.40;9.55;;;19.70;99.90;;;;;;5041988;28;20601;-73
2022/05/04 10:14:03;;;;;;;10.00;9.10;;;19.80;99.90;;;;;;5060197;28;20201;-68
2022/05/04 10:16:40;;;;;;;11.30;9.75;;;20.50;99.30;;;;;;5047116;28;20182;-68
2022/05/04 10:19:11;;;;;;;10.15;9.25;;;20.30;99.40;;;;;;5047363;28;20191;-66
2022/05/04 10:21:39;;;;;;;10.30;9.40;;;21.10;97.30;;;;;;5048799;28;20174;-68
2022/05/04 10:24:07;;;;;;;11.73;10.68;;;21.70;97.90;;;;;;5047996;28;20270;-66
2022/05/04 10:26:38;;;;;;;10.57;9.67;;;22.50;97.10;;;;;;5045012;28;20640;-66
2022/05/04 10:32:41;;;;;;;10.00;9.27;;;23.30;91.90;;;;;;5044355;28;20979;-64
2022/05/04 10:35:18;;;;;;;9.13;8.33;;;22.70;92.60;;;;;;5049710;28;20886;-65
2022/05/04 10:38:04;;;;;;;9.57;8.77;;;23.10;91.50;;;;;;5048004;28;20482;-70
2022/05/04 10:40:34;;;;;;;10.80;10.00;;;23.40;90.80;;;;;;5048675;28;20435;-64
2022/05/04 10:43:12;;;;;;;9.57;8.77;;;23.50;91.40;;;;;;5047518;28;20467;-65
2022/05/04 10:45:39;;;;;;;8.87;8.27;;;24.00;88.80;;;;;;5038509;28;20559;-65
2022/05/04 10:48:14;;;;;;;9.63;8.80;;;24.20;88.20;;;;;;5041756;28;20447;-65
2022/05/04 10:50:53;;;;;;;8.90;8.20;;;23.40;90.10;;;;;;5046508;28;20439;-67
2022/05/04 10:53:39;;;;;;;9.47;8.70;;;23.60;89.00;;;;;;5048272;28;20424;-65
2022/05/04 10:56:10;;;;;;;9.13;8.23;;;23.60;85.70;;;;;;5049968;28;20436;-66
2022/05/04 10:58:47;;;;;;;9.30;8.60;;;23.40;86.30;;;;;;5047322;28;20442;-65
2022/05/04 11:01:17;;;;;;;9.00;8.10;;;23.50;85.10;;;;;;5043254;28;20468;-63
2022/05/04 11:04:22;;;;;;;8.53;7.83;;;23.80;85.80;;;;;;5041205;28;20467;-62
2022/05/04 11:06:56;;;;;;;9.00;8.20;;;24.10;83.40;;;;;;4987970;28;20878;-66
2022/05/04 11:09:31;;;;;;;8.30;7.60;;;24.40;82.30;;;;;;5037536;28;20578;-68
2022/05/04 11:11:58;;;;;;;7.37;6.77;;;24.30;83.80;;;;;;5048473;28;20538;-70
2022/05/04 11:14:24;;;;;;;6.60;6.07;;;26.20;74.80;;;;;;5045651;28;20575;-69
2022/05/04 11:16:52;;;;;;;7.43;6.40;;;26.60;72.40;;;;;;5047296;28;20476;-65
2022/05/04 11:19:19;;;;;;;7.43;6.93;;;27.00;69.80;;;;;;5039099;28;20435;-68
2022/05/04 11:21:45;;;;;;;6.63;6.03;;;26.80;69.50;;;;;;5048051;28;20978;-63
2022/05/04 11:24:13;;;;;;;6.20;5.70;;;26.80;67.10;;;;;;5047827;28;20479;-66
2022/05/04 11:26:40;;;;;;;6.77;6.17;;;27.30;65.90;;;;;;5047381;28;20444;-67
2022/05/04 11:29:10;;;;;;;6.30;5.90;;;27.20;67.30;;;;;;5042793;28;20977;-67
2022/05/04 11:31:36;;;;;;;6.33;5.73;;;26.70;66.50;;;;;;5043981;28;20772;-65
2022/05/04 11:34:03;;;;;;;6.40;5.90;;;26.50;65.50;;;;;;5039317;28;20473;-65
2022/05/04 11:36:29;;;;;;;6.10;5.60;;;26.10;65.50;;;;;;5045846;28;20501;-65
2022/05/04 11:38:54;;;;;;;4.97;4.67;;;26.00;68.30;;;;;;5039108;28;20443;-67
2022/05/04 11:41:21;;;;;;;5.93;5.53;;;26.20;65.00;;;;;;5063822;28;20439;-66
2022/05/04 11:43:54;;;;;;;6.63;5.70;;;25.90;65.90;;;;;;5063042;28;20178;-65
2022/05/04 11:46:21;;;;;;;5.80;5.40;;;25.50;69.20;;;;;;5048365;28;20465;-66
2022/05/04 11:48:47;;;;;;;5.87;5.43;;;25.00;69.60;;;;;;5043365;28;20464;-65
2022/05/04 11:51:16;;;;;;;6.93;6.30;;;24.70;70.60;;;;;;5046658;28;20508;-65
2022/05/04 11:53:42;;;;;;;6.30;5.80;;;24.30;70.20;;;;;;5047058;28;20479;-65
2022/05/04 11:56:09;;;;;;;7.30;6.70;;;24.10;70.30;;;;;;5046554;28;20436;-63
2022/05/04 11:58:36;;;;;;;6.93;6.37;;;24.20;71.30;;;;;;5040784;28;20473;-61
2022/05/04 12:01:04;;;;;;;6.67;6.17;;;24.00;72.40;;;;;;5040159;28;20553;-66
2022/05/04 12:03:32;;;;;;;5.63;5.10;;;23.90;73.40;;;;;;5039271;28;20448;-67
2022/05/04 12:06:00;;;;;;;6.90;6.23;;;23.40;74.60;;;;;;5046402;28;20467;-63
2022/05/04 12:08:26;;;;;;;6.97;5.60;;;22.80;74.10;;;;;;5043965;28;20515;-61
2022/05/04 12:10:53;;;;;;;5.77;5.37;;;23.00;76.10;;;;;;5050150;28;20478;-61
2022/05/04 12:13:23;;;;;;;5.07;4.67;;;23.10;73.40;;;;;;5045064;28;20513;-63
2022/05/04 12:15:52;;;;;;;6.10;5.60;;;22.80;73.50;;;;;;5049768;28;20554;-68
2022/05/04 12:18:17;;;;;;;6.13;5.60;;;22.70;74.30;;;;;;5058369;28;20855;-66
2022/05/04 12:20:44;;;;;;;5.07;4.67;;;22.60;73.80;;;;;;5048519;28;20447;-65
2022/05/04 12:23:11;;;;;;;5.57;4.93;;;22.70;72.80;;;;;;5059997;28;20194;-64
2022/05/04 12:25:42;;;;;;;5.57;5.17;;;22.60;73.10;;;;;;5047537;28;21087;-68
2022/05/04 12:28:08;;;;;;;5.67;5.27;;;22.60;72.20;;;;;;5048314;28;20485;-67
2022/05/04 12:33:32;;;;;;;5.85;5.25;;;22.60;72.00;;;;;;5050781;28;20555;-66
2022/05/04 12:36:00;;;;;;;5.30;4.80;;;22.50;73.00;;;;;;5046941;28;20551;-65
2022/05/04 12:38:27;;;;;;;6.77;5.10;;;22.50;72.30;;;;;;5050979;28;20447;-66
2022/05/04 12:40:53;;;;;;;5.73;5.10;;;22.60;73.90;;;;;;5042292;28;20483;-64
2022/05/04 12:43:22;;;;;;;5.57;5.00;;;22.60;74.80;;;;;;5048052;28;20436;-66
2022/05/04 12:45:47;;;;;;;5.10;4.70;;;22.60;74.00;;;;;;5051304;28;20561;-74
2022/05/04 12:48:13;;;;;;;4.77;4.37;;;22.30;73.60;;;;;;5067214;28;20493;-72
2022/05/04 12:50:39;;;;;;;5.23;4.73;;;21.80;73.70;;;;;;5058754;28;20185;-60
2022/05/04 12:53:05;;;;;;;4.82;4.50;;;21.60;73.90;;;;;;5042933;28;20208;-66
2022/05/04 12:58:16;;;;;;;5.13;4.82;;;21.50;76.20;;;;;;5047168;28;20196;-61
2022/05/04 13:00:42;;;;;;;5.05;4.75;;;21.30;77.30;;;;;;5050094;28;20265;-68
2022/05/04 13:03:12;;;;;;;5.23;4.70;;;21.60;76.90;;;;;;5050289;28;20257;-67
2022/05/04 13:05:41;;;;;;;5.65;5.15;;;21.40;76.30;;;;;;5066418;28;20474;-62
2022/05/04 13:08:08;;;;;;;5.72;5.32;;;21.50;77.50;;;;;;5063201;28;20185;-64
2022/05/04 13:10:35;;;;;;;5.00;4.60;;;21.70;75.20;;;;;;5051868;28;20242;-67
2022/05/04 13:13:01;;;;;;;4.40;4.10;;;21.50;75.60;;;;;;5050597;28;20203;-70
2022/05/04 13:15:27;;;;;;;5.50;4.97;;;21.70;76.70;;;;;;5049426;28;20209;-65
2022/05/04 13:17:52;;;;;;;5.13;4.63;;;21.70;76.00;;;;;;5041071;28;20811;-65
2022/05/04 13:20:19;;;;;;;5.37;4.90;;;21.40;77.80;;;;;;5047477;28;20250;-64
2022/05/04 13:22:45;;;;;;;5.38;4.97;;;21.30;79.10;;;;;;5050294;28;20189;-68
2022/05/04 13:25:11;;;;;;;4.53;4.23;;;21.30;79.60;;;;;;5053093;28;20678;-68
2022/05/04 13:27:38;;;;;;;5.00;4.27;;;21.30;78.70;;;;;;5052151;28;20440;-61
2022/05/04 13:30:07;;;;;;;5.00;4.60;;;21.20;79.80;;;;;;5048901;28;20221;-61